Time;durP1;ratioP1;P1;durP2;ratioP2;P2;SDS_P1;SDS_P2;PMS_P1;PMS_P2;Temp;Humidity;BMP_temperature;BMP_pressure;BME280_temperature;BME280_humidity;BME280_pressure;Samples;Min_cycle;Max_cycle;Signal;HPM_P1;HPM_P2
2021/04/07 00:02:09;;;;;;;1.50;1.10;;;;;;;;;;5092244;28;20473;-17
2021/04/07 00:04:35;;;;;;;2.00;1.40;;;;;;;;;;5092838;28;20044;-16
2021/04/07 00:07:00;;;;;;;3.47;0.95;;;;;;;;;;5092981;28;20043;-17
2021/04/07 00:09:26;;;;;;;2.25;0.85;;;;;;;;;;5093216;28;20036;-17
2021/04/07 00:11:52;;;;;;;1.67;1.23;;;;;;;;;;5092857;28;20031;-17
2021/04/07 00:14:18;;;;;;;1.15;0.93;;;;;;;;;;5092855;28;20106;-17
2021/04/07 00:16:43;;;;;;;4.90;1.20;;;;;;;;;;5092754;28;20051;-16
2021/04/07 00:19:09;;;;;;;2.33;1.38;;;;;;;;;;5093073;28;20071;-17
2021/04/07 00:21:35;;;;;;;3.55;1.00;;;;;;;;;;5092473;28;20052;-17
2021/04/07 00:24:00;;;;;;;3.38;1.30;;;;;;;;;;5092619;28;20119;-17
2021/04/07 00:26:25;;;;;;;1.45;1.00;;;;;;;;;;5092709;28;20032;-16
2021/04/07 00:28:51;;;;;;;2.83;1.23;;;;;;;;;;5092578;28;20028;-17
2021/04/07 00:31:16;;;;;;;1.75;1.13;;;;;;;;;;5092862;28;20016;-17
2021/04/07 00:33:41;;;;;;;1.60;1.10;;;;;;;;;;5092817;28;20028;-16
2021/04/07 00:36:07;;;;;;;4.22;1.20;;;;;;;;;;5092519;28;20103;-17
2021/04/07 00:38:32;;;;;;;1.88;1.25;;;;;;;;;;5092402;28;20040;-18
2021/04/07 00:40:58;;;;;;;1.25;0.95;;;;;;;;;;5092833;28;20028;-17
2021/04/07 00:43:24;;;;;;;2.25;1.10;;;;;;;;;;5091007;28;20043;-17
2021/04/07 00:45:49;;;;;;;2.72;1.23;;;;;;;;;;5092395;28;20020;-17
2021/04/07 00:48:15;;;;;;;2.92;1.23;;;;;;;;;;5092656;28;20028;-19
2021/04/07 00:50:40;;;;;;;1.75;1.23;;;;;;;;;;5092315;28;20016;-18
2021/04/07 00:53:06;;;;;;;2.05;1.30;;;;;;;;;;5091156;28;20032;-18
2021/04/07 00:55:33;;;;;;;1.40;1.20;;;;;;;;;;5092456;28;20021;-19
2021/04/07 00:57:58;;;;;;;1.75;0.90;;;;;;;;;;5092276;28;20062;-18
2021/04/07 01:00:24;;;;;;;2.75;1.20;;;;;;;;;;5092427;28;20020;-18
2021/04/07 01:02:57;;;;;;;3.50;1.10;;;;;;;;;;5092216;28;20040;-18
2021/04/07 01:05:23;;;;;;;2.75;1.60;;;;;;;;;;5092510;28;20043;-16
2021/04/07 01:07:49;;;;;;;1.98;1.10;;;;;;;;;;5092143;28;20016;-17
2021/04/07 01:10:15;;;;;;;1.23;0.90;;;;;;;;;;5092283;28;20608;-17
2021/04/07 01:12:42;;;;;;;1.45;0.88;;;;;;;;;;5093673;28;20044;-17
2021/04/07 01:15:08;;;;;;;2.22;1.00;;;;;;;;;;5096264;28;20115;-17
2021/04/07 01:17:33;;;;;;;2.22;1.42;;;;;;;;;;5096124;28;20036;-17
2021/04/07 01:19:59;;;;;;;1.00;0.90;;;;;;;;;;5096115;28;20368;-16
2021/04/07 01:22:25;;;;;;;1.38;0.90;;;;;;;;;;5096014;28;20437;-17
2021/04/07 01:24:50;;;;;;;2.08;1.10;;;;;;;;;;5096131;28;20044;-17
2021/04/07 01:27:16;;;;;;;3.15;1.00;;;;;;;;;;5095902;28;20467;-17
2021/04/07 01:29:42;;;;;;;2.15;1.40;;;;;;;;;;5094612;28;20066;-17
2021/04/07 01:32:07;;;;;;;1.80;0.88;;;;;;;;;;5094676;28;20012;-17
2021/04/07 01:34:33;;;;;;;1.83;0.85;;;;;;;;;;5095777;28;20032;-16
2021/04/07 01:37:00;;;;;;;1.23;1.05;;;;;;;;;;5096180;28;20018;-17
2021/04/07 01:39:26;;;;;;;1.83;1.05;;;;;;;;;;5095670;28;20032;-17
2021/04/07 01:41:52;;;;;;;3.22;0.90;;;;;;;;;;5095958;28;20016;-17
2021/04/07 01:44:18;;;;;;;1.23;0.90;;;;;;;;;;5094372;28;20551;-17
2021/04/07 01:46:43;;;;;;;2.55;1.40;;;;;;;;;;5095837;28;20054;-16
2021/04/07 01:49:09;;;;;;;1.83;1.13;;;;;;;;;;5095867;28;20028;-17
2021/04/07 01:51:34;;;;;;;1.15;0.60;;;;;;;;;;5095451;28;20016;-17
2021/04/07 01:54:01;;;;;;;2.35;1.30;;;;;;;;;;5095500;28;20104;-17
2021/04/07 01:56:26;;;;;;;1.70;1.10;;;;;;;;;;5095488;28;20482;-17
2021/04/07 01:59:12;;;;;;;1.60;0.90;;;;;;;;;;5095574;28;20024;-17
2021/04/07 02:01:37;;;;;;;1.95;1.23;;;;;;;;;;5094878;28;20083;-17
2021/04/07 02:04:03;;;;;;;1.95;1.10;;;;;;;;;;5095451;28;20055;-17
2021/04/07 02:06:28;;;;;;;1.27;1.17;;;;;;;;;;5095464;28;20173;-17
2021/04/07 02:08:53;;;;;;;2.25;1.33;;;;;;;;;;5095027;28;20422;-17
2021/04/07 02:11:19;;;;;;;1.35;1.10;;;;;;;;;;5095308;28;20210;-17
2021/04/07 02:13:44;;;;;;;1.40;1.30;;;;;;;;;;5095136;28;20020;-17
2021/04/07 02:16:11;;;;;;;2.10;1.13;;;;;;;;;;5095060;28;20142;-18
2021/04/07 02:18:36;;;;;;;4.40;1.45;;;;;;;;;;5093504;28;20019;-17
2021/04/07 02:21:01;;;;;;;1.40;1.05;;;;;;;;;;5095273;28;20028;-17
2021/04/07 02:23:27;;;;;;;2.30;1.35;;;;;;;;;;5093744;28;20578;-17
2021/04/07 02:25:52;;;;;;;1.10;1.00;;;;;;;;;;5093974;28;20547;-17
2021/04/07 02:28:18;;;;;;;1.60;0.98;;;;;;;;;;5093358;28;20024;-17
2021/04/07 02:30:43;;;;;;;0.88;0.80;;;;;;;;;;5094635;28;20382;-17
2021/04/07 02:33:08;;;;;;;1.23;1.10;;;;;;;;;;5095054;28;20016;-17
2021/04/07 02:35:34;;;;;;;1.33;1.10;;;;;;;;;;5094733;28;20485;-17
2021/04/07 02:37:59;;;;;;;1.58;0.85;;;;;;;;;;5094612;28;20027;-17
2021/04/07 02:40:24;;;;;;;3.30;1.27;;;;;;;;;;5094552;28;20086;-17
2021/04/07 02:42:50;;;;;;;1.60;1.50;;;;;;;;;;5093384;28;20024;-17
2021/04/07 02:45:15;;;;;;;1.83;1.30;;;;;;;;;;5094460;28;20123;-17
2021/04/07 02:47:40;;;;;;;3.75;1.25;;;;;;;;;;5094420;28;20051;-17
2021/04/07 02:50:06;;;;;;;2.83;1.40;;;;;;;;;;5094485;28;20506;-17
2021/04/07 02:52:31;;;;;;;1.75;1.30;;;;;;;;;;5094378;28;20131;-16
2021/04/07 02:54:56;;;;;;;2.20;1.55;;;;;;;;;;5094343;28;20118;-18
2021/04/07 02:57:22;;;;;;;2.92;1.30;;;;;;;;;;5094550;28;20019;-17
2021/04/07 02:59:48;;;;;;;1.10;1.00;;;;;;;;;;5094686;28;20603;-17
2021/04/07 03:02:14;;;;;;;1.45;1.20;;;;;;;;;;5094535;28;20024;-17
2021/04/07 03:04:39;;;;;;;2.05;1.10;;;;;;;;;;5094217;28;20131;-17
2021/04/07 03:07:04;;;;;;;1.90;1.02;;;;;;;;;;5094067;28;20374;-17
2021/04/07 03:09:30;;;;;;;3.22;1.33;;;;;;;;;;5094102;28;20036;-17
2021/04/07 03:11:55;;;;;;;1.80;1.30;;;;;;;;;;5092675;28;20042;-17
2021/04/07 03:14:20;;;;;;;2.13;1.30;;;;;;;;;;5094216;28;20359;-17
2021/04/07 03:16:46;;;;;;;1.52;0.93;;;;;;;;;;5093875;28;20521;-17
2021/04/07 03:19:11;;;;;;;2.88;1.00;;;;;;;;;;5093824;28;20028;-17
2021/04/07 03:21:36;;;;;;;2.65;1.27;;;;;;;;;;5093859;28;20410;-18
2021/04/07 03:24:02;;;;;;;4.13;1.52;;;;;;;;;;5093999;28;20382;-17
2021/04/07 03:26:28;;;;;;;2.22;1.50;;;;;;;;;;5094017;28;20434;-18
2021/04/07 03:28:53;;;;;;;1.55;1.10;;;;;;;;;;5093563;28;20035;-17
2021/04/07 03:31:18;;;;;;;2.25;1.85;;;;;;;;;;5093636;28;20099;-17
2021/04/07 03:33:44;;;;;;;1.05;1.00;;;;;;;;;;5093462;28;20360;-17
2021/04/07 03:36:09;;;;;;;2.08;1.40;;;;;;;;;;5093683;28;20080;-17
2021/04/07 03:38:35;;;;;;;1.60;1.10;;;;;;;;;;5093754;28;20463;-17
2021/04/07 03:41:01;;;;;;;1.23;0.77;;;;;;;;;;5092136;28;20024;-17
2021/04/07 03:43:27;;;;;;;1.20;1.10;;;;;;;;;;5093306;28;20027;-17
2021/04/07 03:45:53;;;;;;;1.63;1.00;;;;;;;;;;5093610;28;20125;-17
2021/04/07 03:48:20;;;;;;;2.20;1.02;;;;;;;;;;5093142;28;20039;-18
2021/04/07 03:50:46;;;;;;;1.65;1.40;;;;;;;;;;5093557;28;20024;-17
2021/04/07 03:53:12;;;;;;;4.22;1.10;;;;;;;;;;5093299;28;20126;-17
2021/04/07 03:55:38;;;;;;;1.35;0.82;;;;;;;;;;5092979;28;20016;-17
2021/04/07 03:58:04;;;;;;;3.47;1.02;;;;;;;;;;5093148;28;20073;-17
2021/04/07 04:00:29;;;;;;;2.35;1.30;;;;;;;;;;5093102;28;20020;-17
2021/04/07 04:02:55;;;;;;;1.15;0.80;;;;;;;;;;5093190;28;20050;-18
2021/04/07 04:05:20;;;;;;;1.60;1.13;;;;;;;;;;5093053;28;20475;-17
2021/04/07 04:07:46;;;;;;;1.98;0.98;;;;;;;;;;5092894;28;20403;-16
2021/04/07 04:10:12;;;;;;;2.40;1.40;;;;;;;;;;5091648;28;20020;-17
2021/04/07 04:12:37;;;;;;;2.35;1.27;;;;;;;;;;5091618;28;20024;-17
2021/04/07 04:15:03;;;;;;;1.77;1.30;;;;;;;;;;5092905;28;20360;-17
2021/04/07 04:17:28;;;;;;;1.50;0.88;;;;;;;;;;5092783;28;20545;-17
2021/04/07 04:19:53;;;;;;;3.80;1.33;;;;;;;;;;5093022;28;20038;-17
2021/04/07 04:22:19;;;;;;;3.13;1.10;;;;;;;;;;5092750;28;20067;-16
2021/04/07 04:24:46;;;;;;;1.23;0.95;;;;;;;;;;5092791;28;20119;-17
2021/04/07 04:27:11;;;;;;;3.38;1.08;;;;;;;;;;5092897;28;20024;-17
2021/04/07 04:29:36;;;;;;;0.93;0.80;;;;;;;;;;5092801;28;20477;-17
2021/04/07 04:32:02;;;;;;;1.58;1.15;;;;;;;;;;5092577;28;20086;-17
2021/04/07 04:34:27;;;;;;;4.10;2.22;;;;;;;;;;5092926;28;20012;-17
2021/04/07 04:36:53;;;;;;;1.48;0.98;;;;;;;;;;5092488;28;20101;-17
2021/04/07 04:39:18;;;;;;;1.88;0.90;;;;;;;;;;5092431;28;20016;-17
2021/04/07 04:41:44;;;;;;;1.48;0.80;;;;;;;;;;5092715;28;20445;-17
2021/04/07 04:44:09;;;;;;;1.83;1.05;;;;;;;;;;5092424;28;20229;-17
2021/04/07 04:46:34;;;;;;;4.47;1.25;;;;;;;;;;5092445;28;20032;-17
2021/04/07 04:49:00;;;;;;;2.45;1.00;;;;;;;;;;5092076;28;20485;-17
2021/04/07 04:51:25;;;;;;;1.20;1.00;;;;;;;;;;5092310;28;20024;-17
2021/04/07 04:53:50;;;;;;;2.25;0.95;;;;;;;;;;5092318;28;20016;-17
2021/04/07 04:56:16;;;;;;;2.00;1.23;;;;;;;;;;5092437;28;20043;-17
2021/04/07 04:58:41;;;;;;;1.98;0.95;;;;;;;;;;5092354;28;20017;-17
2021/04/07 05:01:07;;;;;;;1.80;1.27;;;;;;;;;;5092642;28;20115;-17
2021/04/07 05:03:32;;;;;;;1.85;1.17;;;;;;;;;;5092140;28;20059;-17
2021/04/07 05:05:57;;;;;;;2.30;1.35;;;;;;;;;;5092169;28;20116;-17
2021/04/07 05:08:23;;;;;;;1.95;0.98;;;;;;;;;;5092248;28;20028;-17
2021/04/07 05:10:48;;;;;;;2.35;1.30;;;;;;;;;;5092124;28;20066;-17
2021/04/07 05:13:14;;;;;;;2.17;1.13;;;;;;;;;;5092486;28;20021;-17
2021/04/07 05:15:39;;;;;;;1.65;1.08;;;;;;;;;;5092126;28;20118;-17
2021/04/07 05:18:15;;;;;;;1.42;1.33;;;;;;;;;;5092163;28;20016;-16
2021/04/07 05:20:41;;;;;;;1.02;0.95;;;;;;;;;;5092065;28;20070;-17
2021/04/07 05:23:06;;;;;;;1.08;1.00;;;;;;;;;;5090687;28;20079;-17
2021/04/07 05:25:32;;;;;;;3.80;1.40;;;;;;;;;;5092057;28;20036;-17
2021/04/07 05:27:57;;;;;;;1.75;1.05;;;;;;;;;;5090812;28;20077;-17
2021/04/07 05:30:23;;;;;;;1.88;1.05;;;;;;;;;;5092137;28;20498;-17
2021/04/07 05:32:48;;;;;;;1.30;1.20;;;;;;;;;;5092311;28;20023;-17
2021/04/07 05:35:14;;;;;;;0.90;0.73;;;;;;;;;;5091924;28;20061;-17
2021/04/07 05:37:39;;;;;;;3.70;1.45;;;;;;;;;;5091944;28;20356;-17
2021/04/07 05:40:05;;;;;;;0.75;0.73;;;;;;;;;;5092308;28;20032;-17
2021/04/07 05:42:30;;;;;;;2.05;1.33;;;;;;;;;;5091904;28;20023;-16
2021/04/07 05:44:56;;;;;;;1.13;0.63;;;;;;;;;;5091866;28;20145;-17
2021/04/07 05:47:21;;;;;;;3.85;1.73;;;;;;;;;;5091840;28;20024;-16
2021/04/07 05:49:46;;;;;;;3.22;0.88;;;;;;;;;;5091322;28;20064;-16
2021/04/07 05:52:12;;;;;;;1.35;1.00;;;;;;;;;;5092089;28;20089;-16
2021/04/07 05:54:37;;;;;;;2.10;1.20;;;;;;;;;;5092126;28;20493;-16
2021/04/07 05:57:03;;;;;;;1.65;1.08;;;;;;;;;;5091943;28;20450;-16
2021/04/07 05:59:28;;;;;;;2.47;1.27;;;;;;;;;;5091276;28;20415;-16
2021/04/07 06:01:53;;;;;;;1.55;1.10;;;;;;;;;;5095653;28;20103;-15
2021/04/07 06:04:19;;;;;;;1.45;1.33;;;;;;;;;;5095192;28;20040;-16
2021/04/07 06:06:44;;;;;;;2.35;1.33;;;;;;;;;;5095325;28;20051;-16
2021/04/07 06:09:09;;;;;;;2.47;1.20;;;;;;;;;;5095558;28;20028;-16
2021/04/07 06:11:35;;;;;;;2.65;0.90;;;;;;;;;;5094009;28;20402;-15
2021/04/07 06:14:00;;;;;;;4.68;1.83;;;;;;;;;;5095120;28;20114;-17
2021/04/07 06:16:25;;;;;;;2.67;1.65;;;;;;;;;;5095363;28;20455;-16
2021/04/07 06:18:53;;;;;;;1.55;1.10;;;;;;;;;;5094943;28;20028;-16
2021/04/07 06:21:18;;;;;;;1.65;1.40;;;;;;;;;;5094829;28;20474;-17
2021/04/07 06:23:44;;;;;;;1.45;1.15;;;;;;;;;;5093581;28;20043;-16
2021/04/07 06:26:09;;;;;;;2.28;1.15;;;;;;;;;;5093978;28;20040;-16
2021/04/07 06:28:35;;;;;;;1.65;0.90;;;;;;;;;;5094820;28;20035;-16
2021/04/07 06:31:01;;;;;;;2.55;1.67;;;;;;;;;;5094584;28;20024;-16
2021/04/07 06:33:27;;;;;;;3.90;1.17;;;;;;;;;;5093432;28;20024;-16
2021/04/07 06:35:57;;;;;;;2.05;1.02;;;;;;;;;;5094634;28;20101;-17
2021/04/07 06:38:23;;;;;;;10.02;4.22;;;;;;;;;;5094576;28;20368;-16
2021/04/07 06:40:49;;;;;;;5.18;1.58;;;;;;;;;;5094551;28;20016;-16
2021/04/07 06:43:15;;;;;;;1.85;1.17;;;;;;;;;;5094608;28;20040;-16
2021/04/07 06:45:41;;;;;;;3.30;1.80;;;;;;;;;;5094398;28;20042;-17
2021/04/07 06:48:07;;;;;;;4.03;1.90;;;;;;;;;;5094446;28;20034;-17
2021/04/07 06:50:33;;;;;;;1.05;0.82;;;;;;;;;;5094763;28;20103;-16
2021/04/07 06:52:59;;;;;;;2.15;1.10;;;;;;;;;;5094255;28;20028;-16
2021/04/07 06:55:25;;;;;;;1.15;0.95;;;;;;;;;;5094422;28;20051;-17
2021/04/07 06:57:51;;;;;;;1.50;0.80;;;;;;;;;;5094169;28;20471;-17
2021/04/07 07:00:17;;;;;;;4.38;0.90;;;;;;;;;;5094180;28;20080;-16
2021/04/07 07:02:43;;;;;;;0.73;0.52;;;;;;;;;;5094129;28;20039;-16
2021/04/07 07:05:09;;;;;;;1.30;1.10;;;;;;;;;;5094121;28;20107;-16
2021/04/07 07:07:35;;;;;;;1.13;0.82;;;;;;;;;;5094024;28;20053;-16
2021/04/07 07:10:00;;;;;;;1.83;0.80;;;;;;;;;;5092296;28;20024;-16
2021/04/07 07:12:26;;;;;;;1.33;0.98;;;;;;;;;;5094143;28;20554;-17
2021/04/07 07:14:52;;;;;;;2.50;1.17;;;;;;;;;;5094073;28;20020;-17
2021/04/07 07:17:31;;;;;;;3.45;0.90;;;;;;;;;;5092637;28;20043;-17
2021/04/07 07:19:57;;;;;;;2.42;1.00;;;;;;;;;;5093743;28;20478;-17
2021/04/07 07:22:24;;;;;;;3.13;1.05;;;;;;;;;;5093660;28;20048;-17
2021/04/07 07:24:54;;;;;;;1.33;0.90;;;;;;;;;;5092470;28;20585;-18
2021/04/07 07:27:20;;;;;;;1.25;1.02;;;;;;;;;;5093936;28;20051;-19
2021/04/07 07:29:56;;;;;;;1.63;0.63;;;;;;;;;;5093901;28;20536;-17
2021/04/07 07:32:31;;;;;;;1.52;0.75;;;;;;;;;;5093788;28;20024;-17
2021/04/07 07:35:04;;;;;;;1.75;0.85;;;;;;;;;;5093976;28;20107;-17
2021/04/07 07:37:29;;;;;;;1.83;1.02;;;;;;;;;;5093576;28;20377;-17
2021/04/07 07:40:25;;;;;;;3.17;1.48;;;;;;;;;;5092148;28;20028;-17
2021/04/07 07:42:52;;;;;;;1.25;0.77;;;;;;;;;;5093382;28;20077;-17
2021/04/07 07:45:26;;;;;;;1.30;0.90;;;;;;;;;;5093345;28;20028;-17
2021/04/07 07:48:07;;;;;;;0.60;0.57;;;;;;;;;;5091786;28;20032;-17
2021/04/07 07:50:35;;;;;;;0.85;0.60;;;;;;;;;;5091980;28;20070;-17
2021/04/07 07:53:09;;;;;;;1.40;0.57;;;;;;;;;;5093480;28;20028;-17
2021/04/07 07:55:37;;;;;;;1.10;0.60;;;;;;;;;;5093268;28;20161;-17
2021/04/07 07:58:08;;;;;;;1.92;0.90;;;;;;;;;;5091684;28;20462;-17
2021/04/07 08:00:40;;;;;;;0.77;0.68;;;;;;;;;;5093194;28;20020;-17
2021/04/07 08:03:17;;;;;;;0.73;0.38;;;;;;;;;;5093373;28;20405;-18
2021/04/07 08:05:43;;;;;;;2.33;1.02;;;;;;;;;;5091611;28;20047;-17
2021/04/07 08:08:10;;;;;;;1.88;0.57;;;;;;;;;;5093271;28;20016;-17
2021/04/07 08:17:46;;;;;;;5.78;1.15;;;;;;;;;;5092952;28;20524;-17
2021/04/07 08:20:11;;;;;;;2.00;1.80;;;;;;;;;;4737653;28;9999781;-19
2021/04/07 08:26:15;;;;;;;1.90;1.15;;;;;;;;;;5086825;28;20095;-17
2021/04/07 08:28:41;;;;;;;1.05;0.57;;;;;;;;;;5089011;28;20028;-17
2021/04/07 08:31:10;;;;;;;1.30;0.63;;;;;;;;;;5089101;28;20024;-17
2021/04/07 08:33:36;;;;;;;0.93;0.47;;;;;;;;;;5087046;28;20027;-17
2021/04/07 08:36:02;;;;;;;0.40;0.40;;;;;;;;;;5088778;28;20024;-17
2021/04/07 08:38:32;;;;;;;1.63;0.40;;;;;;;;;;5088695;28;20060;-17
2021/04/07 08:41:11;;;;;;;0.47;0.45;;;;;;;;;;5088968;28;20019;-17
2021/04/07 08:43:37;;;;;;;1.38;0.52;;;;;;;;;;5088631;28;20043;-17
2021/04/07 08:46:16;;;;;;;0.22;0.22;;;;;;;;;;5087171;28;20032;-17
2021/04/07 08:48:42;;;;;;;0.70;0.40;;;;;;;;;;5089161;28;20111;-17
2021/04/07 08:51:09;;;;;;;1.33;0.40;;;;;;;;;;5088972;28;20554;-17
2021/04/07 08:53:39;;;;;;;0.98;0.50;;;;;;;;;;5088784;28;20028;-16
2021/04/07 08:56:06;;;;;;;0.47;0.47;;;;;;;;;;5088101;28;20020;-17
2021/04/07 08:58:32;;;;;;;0.77;0.57;;;;;;;;;;5088509;28;20032;-16
2021/04/07 09:00:58;;;;;;;2.30;0.60;;;;;;;;;;5088544;28;20026;-16
2021/04/07 09:10:41;;;;;;;1.35;0.52;;;;;;;;;;5088851;28;20178;-17
2021/04/07 09:13:06;;;;;;;;;;;;;;;;;;5087446;28;20123;-17
2021/04/07 09:15:32;;;;;;;0.90;0.30;;;;;;;;;;5088488;28;20007;-25
2021/04/07 09:17:58;;;;;;;1.33;0.50;;;;;;;;;;5088220;28;20032;-17
2021/04/07 09:20:35;;;;;;;0.47;0.43;;;;;;;;;;5087783;28;20370;-18
2021/04/07 09:23:08;;;;;;;1.35;0.70;;;;;;;;;;5088262;28;20054;-17
2021/04/07 09:25:36;;;;;;;0.68;0.43;;;;;;;;;;5088413;28;20042;-17
2021/04/07 09:28:08;;;;;;;0.50;0.50;;;;;;;;;;5086997;28;20040;-18
2021/04/07 09:30:47;;;;;;;0.20;0.20;;;;;;;;;;5088552;28;20111;-17
2021/04/07 09:33:22;;;;;;;0.68;0.43;;;;;;;;;;5088966;28;20028;-17
2021/04/07 09:36:06;;;;;;;1.85;0.55;;;;;;;;;;5092218;28;20036;-18
2021/04/07 09:38:32;;;;;;;0.40;0.35;;;;;;;;;;5091010;28;20052;-17
2021/04/07 09:41:05;;;;;;;0.65;0.35;;;;;;;;;;5091767;28;20501;-17
2021/04/07 09:43:31;;;;;;;0.60;0.32;;;;;;;;;;5092046;28;20064;-17
2021/04/07 09:45:57;;;;;;;0.22;0.20;;;;;;;;;;5091740;28;20071;-17
2021/04/07 09:48:33;;;;;;;0.82;0.50;;;;;;;;;;5091861;28;20052;-17
2021/04/07 09:50:58;;;;;;;1.50;0.68;;;;;;;;;;5091489;28;20027;-16
2021/04/07 09:53:28;;;;;;;0.95;0.70;;;;;;;;;;5073411;28;20012;-16
2021/04/07 09:56:02;;;;;;;2.88;0.52;;;;;;;;;;5091581;28;20067;-17
2021/04/07 09:58:40;;;;;;;0.90;0.30;;;;;;;;;;5091289;28;20027;-16
2021/04/07 10:01:07;;;;;;;1.00;0.65;;;;;;;;;;5091529;28;20502;-16
2021/04/07 10:03:33;;;;;;;0.60;0.50;;;;;;;;;;5091422;28;20585;-16
2021/04/07 10:06:01;;;;;;;0.45;0.38;;;;;;;;;;5091142;28;20070;-16
2021/04/07 10:08:27;;;;;;;0.80;0.60;;;;;;;;;;5091123;28;20485;-16
2021/04/07 10:11:05;;;;;;;0.32;0.20;;;;;;;;;;5091567;28;20088;-16
2021/04/07 10:13:32;;;;;;;0.32;0.30;;;;;;;;;;5091736;28;20062;-16
2021/04/07 10:16:12;;;;;;;0.60;0.40;;;;;;;;;;5066209;28;20023;-17
2021/04/07 10:18:38;;;;;;;0.20;0.20;;;;;;;;;;5091944;28;20020;-17
2021/04/07 10:21:11;;;;;;;0.98;0.30;;;;;;;;;;5091191;28;20556;-17
2021/04/07 10:23:38;;;;;;;2.47;0.30;;;;;;;;;;5091528;28;20048;-16
2021/04/07 10:26:04;;;;;;;0.32;0.32;;;;;;;;;;5091196;28;20047;-17
2021/04/07 10:28:33;;;;;;;1.08;0.30;;;;;;;;;;5091165;28;20073;-18
2021/04/07 10:30:59;;;;;;;1.20;0.30;;;;;;;;;;5090787;28;20020;-18
2021/04/07 10:33:25;;;;;;;0.10;0.10;;;;;;;;;;5090558;28;20073;-18
2021/04/07 10:35:58;;;;;;;0.30;0.30;;;;;;;;;;5090970;28;20020;-18
2021/04/07 10:38:31;;;;;;;1.57;0.80;;;;;;;;;;5091205;28;20047;-18
2021/04/07 10:41:00;;;;;;;0.65;0.35;;;;;;;;;;5090358;28;20490;-18
2021/04/07 10:43:29;;;;;;;3.65;0.55;;;;;;;;;;5088793;28;20139;-18
2021/04/07 10:45:59;;;;;;;0.95;0.80;;;;;;;;;;5089085;28;20035;-18
2021/04/07 10:48:24;;;;;;;0.93;0.40;;;;;;;;;;5091034;28;20788;-18
2021/04/07 10:50:50;;;;;;;1.20;0.52;;;;;;;;;;5090881;28;20072;-18
2021/04/07 10:53:26;;;;;;;0.45;0.40;;;;;;;;;;5090434;28;20103;-18
2021/04/07 10:55:53;;;;;;;0.60;0.40;;;;;;;;;;5090653;28;20526;-19
2021/04/07 10:58:28;;;;;;;0.75;0.40;;;;;;;;;;5090862;28;20056;-18
2021/04/07 11:00:54;;;;;;;0.45;0.40;;;;;;;;;;5073182;28;20066;-16
2021/04/07 11:03:29;;;;;;;0.73;0.40;;;;;;;;;;5089892;28;20040;-16
2021/04/07 11:05:54;;;;;;;0.50;0.28;;;;;;;;;;5089277;28;20516;-16
2021/04/07 11:08:35;;;;;;;0.98;0.50;;;;;;;;;;5072565;28;20518;-16
2021/04/07 11:11:01;;;;;;;0.45;0.45;;;;;;;;;;5090295;28;20032;-16
2021/04/07 11:13:27;;;;;;;2.03;0.82;;;;;;;;;;5090565;28;20066;-16
2021/04/07 11:15:53;;;;;;;1.00;0.50;;;;;;;;;;5090358;28;20032;-16
2021/04/07 11:18:30;;;;;;;0.60;0.57;;;;;;;;;;5090143;28;20030;-16
2021/04/07 11:20:57;;;;;;;0.75;0.57;;;;;;;;;;5090019;28;20035;-16
2021/04/07 11:23:22;;;;;;;0.52;0.52;;;;;;;;;;5088624;28;20052;-17
2021/04/07 11:25:48;;;;;;;0.30;0.30;;;;;;;;;;5090071;28;20097;-17
2021/04/07 11:28:20;;;;;;;0.43;0.38;;;;;;;;;;5089676;28;20035;-17
2021/04/07 11:34:00;;;;;;;0.30;0.30;;;;;;;;;;5048001;28;20036;-16
2021/04/07 11:36:40;;;;;;;0.68;0.30;;;;;;;;;;5090011;28;20039;-17
2021/04/07 11:46:41;;;;;;;2.33;0.95;;;;;;;;;;5089953;28;20016;-16
2021/04/07 11:49:09;;;;;;;0.40;0.35;;;;;;;;;;5090039;28;20364;-17
2021/04/07 11:51:37;;;;;;;0.70;0.50;;;;;;;;;;5089635;28;20035;-16
2021/04/07 11:54:07;;;;;;;0.20;0.20;;;;;;;;;;5088046;28;20024;-16
2021/04/07 11:56:32;;;;;;;1.52;0.63;;;;;;;;;;5080758;28;20023;-18
2021/04/07 11:58:59;;;;;;;1.45;0.80;;;;;;;;;;5089240;28;20871;-16
2021/04/07 12:01:25;;;;;;;0.60;0.47;;;;;;;;;;5089579;28;20035;-17
2021/04/07 12:03:50;;;;;;;1.13;0.50;;;;;;;;;;5089173;28;20024;-16
2021/04/07 12:06:16;;;;;;;2.13;1.23;;;;;;;;;;5089562;28;20031;-17
2021/04/07 12:08:41;;;;;;;1.35;0.75;;;;;;;;;;5089038;28;20024;-16
2021/04/07 12:11:07;;;;;;;0.43;0.43;;;;;;;;;;5089347;28;20413;-17
2021/04/07 12:13:35;;;;;;;1.00;0.65;;;;;;;;;;5089277;28;20024;-16
2021/04/07 12:16:00;;;;;;;0.55;0.40;;;;;;;;;;5088772;28;20046;-16
2021/04/07 12:18:26;;;;;;;0.55;0.40;;;;;;;;;;5088950;28;20405;-16
2021/04/07 12:20:51;;;;;;;1.50;0.70;;;;;;;;;;5087194;28;20030;-17
2021/04/07 12:23:19;;;;;;;1.45;0.40;;;;;;;;;;5089026;28;20181;-17
2021/04/07 12:25:45;;;;;;;1.30;0.65;;;;;;;;;;5088955;28;20040;-18
2021/04/07 12:28:12;;;;;;;0.88;0.28;;;;;;;;;;5088834;28;20040;-16
2021/04/07 12:30:51;;;;;;;0.55;0.55;;;;;;;;;;5087861;28;20081;-17
2021/04/07 12:33:18;;;;;;;1.08;0.70;;;;;;;;;;5089178;28;20066;-18
2021/04/07 12:35:44;;;;;;;1.77;0.55;;;;;;;;;;5088975;28;20424;-17
2021/04/07 12:38:10;;;;;;;0.73;0.47;;;;;;;;;;5089255;28;20053;-17
2021/04/07 12:40:35;;;;;;;3.20;0.60;;;;;;;;;;5089108;28;20020;-17
2021/04/07 12:43:01;;;;;;;0.73;0.43;;;;;;;;;;5088745;28;20036;-17
2021/04/07 12:45:26;;;;;;;1.40;0.80;;;;;;;;;;5088271;28;20118;-17
2021/04/07 12:47:52;;;;;;;0.77;0.50;;;;;;;;;;5088937;28;20024;-16
2021/04/07 12:50:18;;;;;;;1.00;0.52;;;;;;;;;;5087288;28;20028;-17
2021/04/07 12:52:44;;;;;;;1.45;0.73;;;;;;;;;;5088893;28;20383;-17
2021/04/07 12:55:10;;;;;;;1.63;0.70;;;;;;;;;;5088798;28;20027;-17
2021/04/07 12:57:35;;;;;;;2.95;0.60;;;;;;;;;;5088536;28;20789;-17
2021/04/07 13:00:01;;;;;;;1.23;0.60;;;;;;;;;;5088196;28;20082;-16
2021/04/07 13:02:27;;;;;;;2.42;0.50;;;;;;;;;;5088600;28;20032;-17
2021/04/07 13:04:53;;;;;;;0.90;0.40;;;;;;;;;;5088364;28;20063;-17
2021/04/07 13:07:18;;;;;;;2.95;0.82;;;;;;;;;;5088327;28;20086;-17
2021/04/07 13:09:48;;;;;;;1.00;0.60;;;;;;;;;;5091102;28;20023;-17
2021/04/07 13:12:14;;;;;;;0.77;0.50;;;;;;;;;;5092870;28;20036;-17
2021/04/07 13:14:39;;;;;;;0.30;0.30;;;;;;;;;;5093096;28;20027;-20
2021/04/07 13:17:05;;;;;;;0.52;0.30;;;;;;;;;;5091440;28;20028;-17
2021/04/07 13:19:30;;;;;;;0.55;0.20;;;;;;;;;;5092489;28;20024;-17
2021/04/07 13:21:56;;;;;;;0.40;0.40;;;;;;;;;;5092263;28;20032;-17
2021/04/07 13:24:22;;;;;;;1.38;0.30;;;;;;;;;;5092171;28;20087;-17
2021/04/07 13:26:47;;;;;;;0.82;0.50;;;;;;;;;;5090975;28;20024;-18
2021/04/07 13:29:16;;;;;;;1.08;0.40;;;;;;;;;;5092335;28;20051;-17
2021/04/07 13:31:42;;;;;;;0.63;0.32;;;;;;;;;;5092504;28;20024;-17
2021/04/07 13:34:09;;;;;;;1.02;0.50;;;;;;;;;;5091274;28;20360;-17
2021/04/07 13:36:42;;;;;;;1.58;0.52;;;;;;;;;;5092191;28;20032;-17
2021/04/07 13:39:16;;;;;;;1.23;0.47;;;;;;;;;;5090433;28;20492;-17
2021/04/07 13:44:07;;;;;;;0.98;0.68;;;;;;;;;;5091623;28;20072;-17
2021/04/07 13:46:33;;;;;;;1.13;0.57;;;;;;;;;;5091918;28;20036;-17
2021/04/07 13:48:59;;;;;;;0.40;0.30;;;;;;;;;;5090243;28;20016;-17
2021/04/07 13:51:25;;;;;;;0.55;0.30;;;;;;;;;;5091824;28;20036;-17
2021/04/07 13:53:51;;;;;;;0.75;0.30;;;;;;;;;;5090418;28;20506;-17
2021/04/07 13:56:22;;;;;;;0.73;0.30;;;;;;;;;;5091460;28;20061;-17
2021/04/07 13:58:48;;;;;;;1.40;0.40;;;;;;;;;;5090218;28;20387;-19
2021/04/07 14:01:14;;;;;;;0.80;0.40;;;;;;;;;;5092035;28;20024;-17
2021/04/07 14:03:40;;;;;;;0.60;0.40;;;;;;;;;;5091777;28;20034;-17
2021/04/07 14:06:07;;;;;;;0.80;0.40;;;;;;;;;;5091364;28;20031;-17
2021/04/07 14:08:34;;;;;;;0.85;0.32;;;;;;;;;;5091663;28;20077;-17
2021/04/07 14:10:59;;;;;;;0.22;0.22;;;;;;;;;;5091819;28;20024;-16
2021/04/07 14:13:25;;;;;;;0.45;0.30;;;;;;;;;;5091435;28;20032;-17
2021/04/07 14:15:50;;;;;;;0.52;0.20;;;;;;;;;;5091052;28;20024;-17
2021/04/07 14:18:17;;;;;;;1.90;0.30;;;;;;;;;;5089886;28;20475;-16
2021/04/07 14:20:46;;;;;;;0.32;0.20;;;;;;;;;;5089958;28;20020;-17
2021/04/07 14:23:13;;;;;;;1.67;0.22;;;;;;;;;;5091188;28;20043;-17
2021/04/07 14:25:39;;;;;;;3.28;0.40;;;;;;;;;;5091158;28;20043;-18
2021/04/07 14:28:08;;;;;;;0.40;0.40;;;;;;;;;;5091132;28;20486;-17
2021/04/07 14:30:41;;;;;;;2.40;0.40;;;;;;;;;;5091132;28;20149;-17
2021/04/07 14:33:08;;;;;;;0.95;0.40;;;;;;;;;;5089210;28;20313;-17
2021/04/07 14:35:34;;;;;;;0.70;0.38;;;;;;;;;;5091012;28;20020;-17
2021/04/07 14:37:59;;;;;;;0.30;0.20;;;;;;;;;;5090610;28;20024;-17
2021/04/07 14:40:25;;;;;;;1.45;0.43;;;;;;;;;;5090835;28;20023;-17
2021/04/07 14:42:50;;;;;;;3.95;0.30;;;;;;;;;;5091138;28;20471;-16
2021/04/07 14:45:16;;;;;;;1.45;0.32;;;;;;;;;;5090389;28;20036;-17
2021/04/07 14:47:45;;;;;;;1.38;0.30;;;;;;;;;;5090573;28;20157;-17
2021/04/07 14:50:16;;;;;;;0.90;0.30;;;;;;;;;;5090764;28;20046;-17
2021/04/07 14:52:42;;;;;;;0.70;0.40;;;;;;;;;;5089470;28;20031;-17
2021/04/07 14:55:08;;;;;;;0.52;0.50;;;;;;;;;;5090811;28;20024;-16
2021/04/07 14:57:34;;;;;;;0.90;0.20;;;;;;;;;;5090199;28;20032;-17
2021/04/07 14:59:59;;;;;;;0.65;0.35;;;;;;;;;;5090544;28;20137;-18
2021/04/07 15:02:26;;;;;;;1.13;0.32;;;;;;;;;;5090345;28;20557;-18
2021/04/07 15:04:51;;;;;;;1.30;1.00;;;;;;;;;;5090335;28;20028;-19
2021/04/07 15:07:17;;;;;;;0.75;0.30;;;;;;;;;;5090472;28;20036;-18
2021/04/07 15:09:42;;;;;;;1.20;0.45;;;;;;;;;;5089938;28;20050;-17
2021/04/07 15:12:09;;;;;;;0.47;0.30;;;;;;;;;;5090448;28;20459;-17
2021/04/07 15:14:35;;;;;;;5.97;0.50;;;;;;;;;;5090319;28;20030;-17